Time;durP1;ratioP1;P1;durP2;ratioP2;P2;SDS_P1;SDS_P2;PMS_P1;PMS_P2;Temp;Humidity;BMP_temperature;BMP_pressure;BME280_temperature;BME280_humidity;BME280_pressure;Samples;Min_cycle;Max_cycle;Signal;HPM_P1;HPM_P2
2023/04/06 00:03:13;;;;;;;0.10;0.10;;;;;;;-145.06;100.00;98338.03;10440385;28;20259;-79
2023/04/06 00:08:14;;;;;;;0.00;0.00;;;;;;;-145.06;100.00;98364.66;10444828;28;20021;-80
2023/04/06 00:13:15;;;;;;;0.00;0.00;;;;;;;-145.06;100.00;98335.97;10423075;28;20026;-79
2023/04/06 00:18:15;;;;;;;0.10;0.10;;;;;;;-145.06;100.00;98331.88;10418752;28;20420;-80
2023/04/06 00:23:16;;;;;;;0.00;0.00;;;;;;;-145.06;100.00;98370.78;10442568;28;20025;-82
2023/04/06 00:28:17;;;;;;;0.00;0.00;;;;;;;-145.06;100.00;98342.13;10446582;28;20040;-81
2023/04/06 00:33:17;;;;;;;0.10;0.10;;;;;;;-145.06;100.00;98352.38;10426518;28;20028;-80
2023/04/06 00:38:18;;;;;;;0.00;0.00;;;;;;;-145.06;100.00;98403.56;10441277;28;20029;-80
2023/04/06 00:43:18;;;;;;;0.10;0.10;;;;;;;-145.06;100.00;98325.75;10428896;28;20263;-78
2023/04/06 00:48:18;;;;;;;0.10;0.10;;;;;;;-145.06;100.00;98352.38;10433516;28;20434;-78
2023/04/06 00:53:19;;;;;;;0.10;0.10;;;;;;;-145.06;100.00;98295.03;10454314;28;20059;-78
2023/04/06 00:58:19;;;;;;;0.00;0.00;;;;;;;-145.06;100.00;98354.41;10433072;28;20048;-79
2023/04/06 01:03:20;;;;;;;0.05;0.05;;;;;;;-145.06;100.00;98356.47;10443124;28;20392;-79
2023/04/06 01:08:20;;;;;;;0.10;0.10;;;;;;;-145.06;100.00;98364.66;10437074;28;20421;-79
2023/04/06 01:13:21;;;;;;;0.10;0.10;;;;;;;-145.06;100.00;98327.78;10454520;28;20029;-80
2023/04/06 01:18:28;;;;;;;0.20;0.20;;;;;;;-145.06;100.00;98301.16;10446315;28;20013;-81
2023/04/06 01:23:28;;;;;;;0.20;0.20;;;;;;;-145.06;100.00;98311.41;10443787;28;20021;-81
2023/04/06 01:28:28;;;;;;;0.03;0.03;;;;;;;-145.06;100.00;98321.66;10453890;28;20017;-80
2023/04/06 01:33:29;;;;;;;0.17;0.17;;;;;;;-145.06;100.00;98323.69;10454959;28;20036;-80
2023/04/06 01:38:30;;;;;;;0.10;0.10;;;;;;;-145.06;100.00;98299.13;10435814;28;20022;-80
2023/04/06 01:43:30;;;;;;;0.10;0.10;;;;;;;-145.06;100.00;98366.69;10469474;22;20124;-81
2023/04/06 01:48:31;;;;;;;0.10;0.10;;;;;;;-145.06;100.00;98362.59;10459193;28;20025;-81
2023/04/06 01:53:31;;;;;;;0.10;0.10;;;;;;;-145.06;100.00;98327.78;10454110;28;20057;-82
2023/04/06 01:58:32;;;;;;;0.00;0.00;;;;;;;-145.06;100.00;98344.16;10425854;28;20460;-81
2023/04/06 02:03:32;;;;;;;0.10;0.10;;;;;;;-145.06;100.00;98325.75;10409721;28;20615;-80
2023/04/06 02:08:33;;;;;;;0.00;0.00;;;;;;;-145.06;100.00;98360.56;10437324;28;20654;-83
2023/04/06 02:13:33;;;;;;;0.10;0.10;;;;;;;-145.06;100.00;98372.84;10430293;28;20017;-80
2023/04/06 02:18:33;;;;;;;0.08;0.08;;;;;;;-145.06;100.00;98356.47;10405802;28;20029;-80
2023/04/06 02:23:34;;;;;;;0.10;0.10;;;;;;;-145.06;100.00;98366.69;10430553;28;20435;-81
2023/04/06 02:28:34;;;;;;;0.10;0.10;;;;;;;-145.06;100.00;98368.75;10442768;28;20041;-80
2023/04/06 02:33:34;;;;;;;0.10;0.10;;;;;;;-145.06;100.00;98360.56;10434212;28;20264;-79
2023/04/06 02:38:35;;;;;;;0.10;0.10;;;;;;;-145.06;100.00;98356.47;10437474;28;20026;-81
2023/04/06 02:43:35;;;;;;;0.10;0.10;;;;;;;-145.06;100.00;98295.03;10441664;28;20317;-81
2023/04/06 02:48:36;;;;;;;0.10;0.10;;;;;;;-145.06;100.00;98338.03;10419413;28;20021;-78
2023/04/06 02:53:37;;;;;;;0.10;0.10;;;;;;;-145.06;100.00;98335.97;10431077;28;20494;-81
2023/04/06 02:58:37;;;;;;;0.20;0.20;;;;;;;-145.06;100.00;98381.03;10421435;28;20023;-79
2023/04/06 03:03:37;;;;;;;0.10;0.10;;;;;;;-145.06;100.00;98352.38;10414950;28;20028;-82
2023/04/06 03:08:38;;;;;;;0.03;0.03;;;;;;;-145.06;100.00;98368.75;10410207;28;20028;-80
2023/04/06 03:13:38;;;;;;;0.10;0.10;;;;;;;-145.06;100.00;98352.38;10407930;28;20869;-81
2023/04/06 03:18:38;;;;;;;0.10;0.10;;;;;;;-145.06;100.00;98364.66;10431322;28;20010;-80
2023/04/06 03:23:39;;;;;;;0.10;0.10;;;;;;;-145.06;100.00;98348.28;10428623;28;20028;-80
2023/04/06 03:28:40;;;;;;;0.10;0.10;;;;;;;-145.06;100.00;98366.69;10429513;28;20025;-79
2023/04/06 03:33:40;;;;;;;0.20;0.20;;;;;;;-145.06;100.00;98356.47;10415991;28;20021;-80
2023/04/06 03:38:40;;;;;;;0.07;0.07;;;;;;;-145.06;100.00;98372.84;10411611;28;20522;-82
2023/04/06 03:43:41;;;;;;;0.10;0.10;;;;;;;-145.06;100.00;98387.19;10407689;28;20324;-81
2023/04/06 03:48:41;;;;;;;0.20;0.20;;;;;;;-145.06;100.00;98372.84;10401333;28;20278;-82
2023/04/06 03:53:41;;;;;;;0.10;0.10;;;;;;;-145.06;100.00;98331.88;10410287;28;20600;-82
2023/04/06 03:58:44;;;;;;;0.10;0.10;;;;;;;-145.06;100.00;98356.47;10421168;28;20341;-81
2023/04/06 04:03:44;;;;;;;0.10;0.10;;;;;;;-145.06;100.00;98409.69;10412257;28;20447;-81
2023/04/06 04:08:45;;;;;;;0.10;0.10;;;;;;;-145.06;100.00;98344.16;10423574;28;20025;-81
2023/04/06 04:13:45;;;;;;;0.10;0.10;;;;;;;-145.06;100.00;98360.56;10421416;28;20025;-80
2023/04/06 04:18:48;;;;;;;0.10;0.10;;;;;;;-145.06;100.00;98360.56;10403582;28;20089;-81
2023/04/06 04:23:48;;;;;;;0.20;0.20;;;;;;;-145.06;100.00;98335.97;10435112;28;20029;-81
2023/04/06 04:28:50;;;;;;;0.10;0.10;;;;;;;-145.06;100.00;98338.03;10407946;28;20423;-81
2023/04/06 04:33:50;;;;;;;0.20;0.20;;;;;;;-145.06;100.00;98292.97;10431451;28;20057;-81
2023/04/06 04:38:51;;;;;;;0.13;0.13;;;;;;;-145.06;100.00;98229.50;10425798;28;20025;-80
2023/04/06 04:43:51;;;;;;;0.10;0.10;;;;;;;-145.06;100.00;97975.59;10422183;28;20071;-80
2023/04/06 04:48:52;;;;;;;0.10;0.10;;;;;;;-145.06;100.00;96796.38;10421892;28;20044;-81
2023/04/06 04:53:52;;;;;;;0.10;0.10;;;;;;;-145.06;100.00;96391.09;10420296;28;20028;-81
2023/04/06 04:58:52;;;;;;;0.10;0.10;;;;;;;-145.06;100.00;96305.13;10412353;28;20264;-82
2023/04/06 05:03:53;;;;;;;0.10;0.10;;;;;;;-145.06;100.00;96264.19;10423678;28;20389;-81
2023/04/06 05:08:53;;;;;;;0.20;0.20;;;;;;;-145.06;100.00;96106.59;10448826;28;20068;-81
2023/04/06 05:13:53;;;;;;;0.03;0.03;;;;;;;-145.06;100.00;96382.91;10414297;28;20028;-82
2023/04/06 05:18:56;;;;;;;0.10;0.10;;;;;;;-145.06;100.00;96018.59;10423488;28;20307;-81
2023/04/06 05:23:57;;;;;;;0.20;0.20;;;;;;;-145.06;100.00;95723.91;10411426;28;20021;-82
2023/04/06 05:28:58;;;;;;;0.05;0.05;;;;;;;-145.06;100.00;95664.53;10435877;28;20029;-82
2023/04/06 05:33:58;;;;;;;0.00;0.00;;;;;;;-145.06;100.00;95427.16;10437018;28;20025;-82
2023/04/06 05:38:58;;;;;;;0.00;0.00;;;;;;;-145.06;100.00;95357.59;10414716;28;20021;-83
2023/04/06 05:43:59;;;;;;;0.00;0.00;;;;;;;-145.06;100.00;95251.19;10435876;28;20530;-84
2023/04/06 05:49:00;;;;;;;0.00;0.00;;;;;;;-145.06;97.93;95026.13;10413875;28;20027;-85
2023/04/06 05:54:00;;;;;;;0.00;0.00;;;;;;;-145.06;93.83;95011.78;10455461;28;20124;-84
2023/04/06 05:59:00;;;;;;;0.10;0.10;;;;;;;-145.06;86.73;94895.16;10425080;28;20054;-84
2023/04/06 06:04:02;;;;;;;0.00;0.00;;;;;;;-145.06;78.74;94807.19;10409986;28;20056;-85
2023/04/06 06:09:03;;;;;;;0.00;0.00;;;;;;;-145.06;77.32;94784.69;10418527;28;20035;-85
2023/04/06 06:14:03;;;;;;;0.10;0.10;;;;;;;-145.06;73.88;94788.78;10427177;28;20025;-84
2023/04/06 06:19:04;;;;;;;0.10;0.10;;;;;;;-145.06;70.83;94709.00;10424801;28;20032;-84
2023/04/06 06:24:05;;;;;;;0.10;0.10;;;;;;;-145.06;69.49;94692.63;10421153;28;20359;-85
2023/04/06 06:29:06;;;;;;;0.10;0.10;;;;;;;-145.06;64.94;94659.88;10412538;28;20030;-85
2023/04/06 06:34:06;;;;;;;0.08;0.08;;;;;;;-145.06;63.38;94557.59;10420090;28;20047;-85
2023/04/06 06:39:07;;;;;;;0.10;0.10;;;;;;;-145.06;57.54;94528.94;10420461;28;20022;-85
2023/04/06 06:44:07;;;;;;;0.10;0.10;;;;;;;-145.06;58.10;94481.91;10407480;28;20032;-85
2023/04/06 06:49:08;;;;;;;0.10;0.10;;;;;;;-145.06;53.70;94471.66;10418198;28;20159;-84
2023/04/06 06:54:08;;;;;;;0.10;0.10;;;;;;;-145.06;52.95;94432.81;10434577;28;20020;-85
2023/04/06 06:59:09;;;;;;;0.00;0.00;;;;;;;-145.06;49.02;94389.84;10432367;28;20017;-85
2023/04/06 07:04:09;;;;;;;0.00;0.00;;;;;;;-145.06;46.47;94428.72;10426397;28;20796;-85
2023/04/06 07:09:09;;;;;;;0.10;0.10;;;;;;;-145.06;46.65;94379.59;10435601;28;20029;-85
2023/04/06 07:14:11;;;;;;;0.00;0.00;;;;;;;-145.06;44.30;94324.38;10429836;28;20029;-85
2023/04/06 07:19:11;;;;;;;0.00;0.00;;;;;;;-145.06;43.28;94314.16;10428349;28;20033;-85
2023/04/06 07:24:12;;;;;;;0.10;0.10;;;;;;;-145.06;42.38;94252.78;10427353;28;20036;-85
2023/04/06 07:29:12;;;;;;;0.00;0.00;;;;;;;-145.06;42.80;94285.50;10421124;28;20350;-85
2023/04/06 07:34:12;;;;;;;0.10;0.10;;;;;;;-145.06;41.81;94256.88;10442210;28;20024;-85
2023/04/06 07:39:13;;;;;;;0.00;0.00;;;;;;;-145.06;42.44;94281.41;10439144;28;20472;-86
2023/04/06 07:44:13;;;;;;;0.00;0.00;;;;;;;-145.06;42.18;94258.91;10434984;23;20319;-78
2023/04/06 07:49:14;;;;;;;0.07;0.07;;;;;;;-145.06;39.13;94242.53;10407201;28;20492;-80
2023/04/06 07:54:14;;;;;;;0.00;0.00;;;;;;;-145.06;39.60;94287.56;10393463;28;20052;-78
2023/04/06 07:59:15;;;;;;;0.00;0.00;;;;;;;-145.06;40.12;94320.28;10405457;28;20017;-78
2023/04/06 08:04:15;;;;;;;0.00;0.00;;;;;;;-145.06;40.17;94393.94;10386856;28;20022;-78
2023/04/06 08:09:15;;;;;;;0.00;0.00;;;;;;;-145.06;38.66;94398.03;10397267;28;20388;-79
2023/04/06 08:14:16;;;;;;;0.10;0.10;;;;;;;-145.06;39.78;94471.66;10388411;28;20030;-78
2023/04/06 08:19:18;;;;;;;0.00;0.00;;;;;;;-145.06;40.03;94477.81;10383859;28;20014;-79
2023/04/06 08:24:19;;;;;;;0.10;0.10;;;;;;;-145.06;39.26;94406.19;10374600;28;20026;-78
2023/04/06 08:29:19;;;;;;;0.10;0.10;;;;;;;-145.06;37.83;94434.84;10381747;28;20021;-77
2023/04/06 08:34:20;;;;;;;0.10;0.10;;;;;;;-145.06;37.77;94430.75;10399773;28;20056;-79
2023/04/06 08:39:25;;;;;;;0.00;0.00;;;;;;;-145.06;38.71;94483.94;10395096;28;20018;-78
2023/04/06 08:44:25;;;;;;;0.10;0.10;;;;;;;-145.06;38.74;94483.94;10390064;28;20030;-78
2023/04/06 08:49:27;;;;;;;0.10;0.10;;;;;;;-145.06;35.21;94369.38;10394481;28;20025;-79
2023/04/06 08:54:27;;;;;;;0.10;0.10;;;;;;;-145.06;36.13;94461.44;10373901;28;20029;-77
2023/04/06 08:59:28;;;;;;;0.10;0.10;;;;;;;-145.06;36.16;94512.59;10398950;28;20234;-78
2023/04/06 09:04:28;;;;;;;0.10;0.10;;;;;;;-145.06;36.11;94520.78;10396295;28;20108;-79
2023/04/06 09:09:28;;;;;;;0.10;0.10;;;;;;;-145.06;36.68;94573.97;10387496;28;20473;-79
2023/04/06 09:14:37;;;;;;;0.10;0.10;;;;;;;-145.06;37.94;94641.47;10375822;28;20084;-79
2023/04/06 09:19:47;;;;;;;0.10;0.10;;;;;;;-145.06;37.56;94633.28;10379860;28;20288;-78
2023/04/06 09:24:52;;;;;;;0.10;0.10;;;;;;;-145.06;39.55;94721.25;10394308;28;20453;-77
2023/04/06 09:30:07;;;;;;;0.10;0.10;;;;;;;-145.06;37.34;94676.25;10397226;28;20048;-78
2023/04/06 09:35:08;;;;;;;0.10;0.10;;;;;;;-145.06;38.80;94702.84;10370880;28;20026;-79
2023/04/06 09:40:09;;;;;;;0.10;0.10;;;;;;;-145.06;38.16;94692.63;10392598;28;20024;-79
2023/04/06 09:45:10;;;;;;;0.10;0.10;;;;;;;-145.06;35.02;94678.31;10371322;28;20040;-77
2023/04/06 09:50:13;;;;;;;0.10;0.10;;;;;;;-145.06;38.59;94737.63;10387506;28;20026;-78
2023/04/06 09:55:25;;;;;;;0.10;0.10;;;;;;;-145.06;35.33;94663.97;10406331;28;20041;-78
2023/04/06 10:00:29;;;;;;;0.10;0.10;;;;;;;-145.06;37.26;94758.09;10405387;28;20397;-79
2023/04/06 10:05:41;;;;;;;0.10;0.10;;;;;;;-145.06;36.29;94684.44;10390328;28;20048;-79
2023/04/06 10:10:42;;;;;;;0.10;0.10;;;;;;;-145.06;36.45;94709.00;10399503;28;20026;-78
2023/04/06 10:15:44;;;;;;;0.10;0.10;;;;;;;-145.06;37.08;94758.09;10397190;28;20111;-80
2023/04/06 10:20:55;;;;;;;0.10;0.10;;;;;;;-145.06;37.42;94833.78;10396778;28;20064;-79
2023/04/06 10:25:58;;;;;;;0.10;0.10;;;;;;;-145.06;35.91;94839.94;10385158;28;20032;-78
2023/04/06 10:31:00;;;;;;;0.10;0.10;;;;;;;-145.06;37.21;94876.75;10370386;28;20018;-78
2023/04/06 10:36:15;;;;;;;0.10;0.10;;;;;;;-145.06;36.00;94827.66;10367050;28;20022;-79
2023/04/06 10:41:17;;;;;;;0.10;0.10;;;;;;;-145.06;35.66;94839.94;10372098;28;20493;-80
2023/04/06 10:46:25;;;;;;;0.10;0.10;;;;;;;-145.06;36.23;94821.50;10388124;28;20030;-79
2023/04/06 10:51:28;;;;;;;0.10;0.10;;;;;;;-145.06;37.66;94850.16;10375104;28;20517;-80
2023/04/06 10:56:30;;;;;;;0.10;0.10;;;;;;;-145.06;36.03;94880.84;10392463;28;20363;-79
2023/04/06 11:01:30;;;;;;;0.10;0.10;;;;;;;-145.06;35.76;94878.81;10381497;28;20369;-79
2023/04/06 11:06:32;;;;;;;0.10;0.10;;;;;;;-145.06;35.90;94852.22;10380347;28;20113;-79
2023/04/06 11:11:32;;;;;;;0.10;0.10;;;;;;;-145.06;37.25;94936.09;10364249;28;20021;-79
2023/04/06 11:16:33;;;;;;;0.10;0.10;;;;;;;-145.06;36.15;94874.72;10402831;28;20018;-78
2023/04/06 11:21:36;;;;;;;0.10;0.10;;;;;;;-145.06;35.37;94858.34;10395498;28;20265;-79
2023/04/06 11:26:45;;;;;;;0.10;0.10;;;;;;;-145.06;38.20;94923.81;10367179;28;20108;-78
2023/04/06 11:31:50;;;;;;;0.03;0.03;;;;;;;-145.06;36.87;94897.22;10365984;28;20014;-79
2023/04/06 11:36:59;;;;;;;0.10;0.10;;;;;;;-145.06;34.73;94813.34;10379676;28;20022;-78
2023/04/06 11:42:02;;;;;;;0.10;0.10;;;;;;;-145.06;34.30;94811.28;10387426;28;20017;-79
2023/04/06 11:47:04;;;;;;;0.10;0.10;;;;;;;-145.06;36.02;94860.38;10384034;28;20117;-77
2023/04/06 11:52:24;;;;;;;0.10;0.10;;;;;;;-145.06;33.57;94796.97;10390203;28;20025;-79
2023/04/06 11:57:25;;;;;;;0.10;0.10;;;;;;;-145.06;36.47;94860.38;10385100;28;20021;-78
2023/04/06 12:02:25;;;;;;;0.10;0.10;;;;;;;-145.06;36.33;94903.34;10384136;28;20045;-78
2023/04/06 12:07:26;;;;;;;0.10;0.10;;;;;;;-145.06;36.29;94909.50;10390299;28;20018;-79
2023/04/06 12:12:26;;;;;;;0.10;0.10;;;;;;;-145.06;37.55;94925.88;10384033;28;20046;-78
2023/04/06 12:17:26;;;;;;;0.10;0.10;;;;;;;-145.06;36.97;94917.69;10393500;28;20025;-78
2023/04/06 12:22:27;;;;;;;0.00;0.00;;;;;;;-145.06;38.00;94938.13;10399647;28;20263;-78
2023/04/06 12:27:27;;;;;;;0.03;0.03;;;;;;;-145.06;38.00;94899.25;10395884;28;20277;-78
2023/04/06 12:32:27;;;;;;;0.10;0.10;;;;;;;-145.06;37.65;94882.91;10398565;28;20025;-78
2023/04/06 12:37:28;;;;;;;0.00;0.00;;;;;;;-145.06;35.61;94866.53;10411772;28;20260;-77
2023/04/06 12:42:28;;;;;;;0.00;0.00;;;;;;;-145.06;37.43;94923.81;10410253;28;20074;-78
2023/04/06 12:47:29;;;;;;;0.10;0.10;;;;;;;-145.06;38.37;94909.50;10417791;28;20025;-78
2023/04/06 12:52:31;;;;;;;0.10;0.10;;;;;;;-145.06;33.46;94893.13;10413056;28;20040;-77
2023/04/06 12:57:31;;;;;;;0.10;0.10;;;;;;;-145.06;37.42;94983.16;10383293;28;20395;-77
2023/04/06 13:02:31;;;;;;;0.10;0.10;;;;;;;-145.06;36.57;94913.59;10398342;28;20056;-76
2023/04/06 13:07:32;;;;;;;0.10;0.10;;;;;;;-145.06;37.60;94921.78;10374796;28;20026;-76
2023/04/06 13:12:32;;;;;;;0.10;0.10;;;;;;;-145.06;37.24;94897.22;10366461;28;20047;-76
2023/04/06 13:17:32;;;;;;;0.10;0.10;;;;;;;-145.06;36.95;94929.94;10411732;28;20017;-78
2023/04/06 13:22:33;;;;;;;0.10;0.10;;;;;;;-145.06;34.06;94864.47;10399898;28;20018;-77
2023/04/06 13:27:35;;;;;;;0.10;0.10;;;;;;;-145.06;34.52;94870.63;10391124;28;20022;-78
2023/04/06 13:32:36;;;;;;;0.03;0.03;;;;;;;-145.06;36.29;94911.53;10377246;28;20264;-78
2023/04/06 13:37:36;;;;;;;0.10;0.10;;;;;;;-145.06;34.75;94887.00;10374470;28;20068;-78
2023/04/06 13:42:39;;;;;;;0.10;0.10;;;;;;;-145.06;35.74;94936.09;10402424;28;20400;-78
2023/04/06 13:47:40;;;;;;;0.10;0.10;;;;;;;-145.06;37.33;94938.13;10455451;23;20346;-82
2023/04/06 13:52:40;;;;;;;0.10;0.10;;;;;;;-145.06;34.40;94856.28;10467894;28;20476;-83
2023/04/06 13:57:41;;;;;;;0.10;0.10;;;;;;;-145.06;35.23;94878.81;10447091;28;20395;-83
2023/04/06 14:02:47;;;;;;;0.10;0.10;;;;;;;-145.06;34.60;94882.91;10420522;28;20057;-83
2023/04/06 14:07:47;;;;;;;0.10;0.10;;;;;;;-145.06;34.28;94884.94;10460856;28;20017;-84
2023/04/06 14:12:48;;;;;;;0.10;0.10;;;;;;;-145.06;34.89;94917.69;10432277;28;20512;-83
2023/04/06 14:17:48;;;;;;;0.10;0.10;;;;;;;-145.06;34.69;94911.53;10456800;28;20084;-83
2023/04/06 14:22:51;;;;;;;0.10;0.10;;;;;;;-145.06;34.14;94895.16;10462215;28;20024;-83
2023/04/06 14:27:51;;;;;;;0.10;0.10;;;;;;;-145.06;35.79;94938.13;10418684;28;20068;-84
2023/04/06 14:32:51;;;;;;;0.10;0.10;;;;;;;-145.06;35.30;94901.31;10436172;28;20056;-83
2023/04/06 14:37:52;;;;;;;0.10;0.10;;;;;;;-145.06;35.96;94964.75;10461158;28;20025;-85
2023/04/06 14:42:52;;;;;;;0.00;0.00;;;;;;;-145.06;36.80;95032.25;10436168;28;20028;-85
2023/04/06 14:47:52;;;;;;;0.10;0.10;;;;;;;-145.06;37.68;95005.66;10424326;28;20025;-84
2023/04/06 14:52:52;;;;;;;0.10;0.10;;;;;;;-145.06;36.00;94962.69;10443437;28;20041;-85
2023/04/06 14:57:53;;;;;;;0.10;0.10;;;;;;;-145.06;34.05;94950.41;10445266;28;20111;-85
2023/04/06 15:02:53;;;;;;;0.08;0.08;;;;;;;-145.06;35.85;95054.75;10423113;28;20040;-84
2023/04/06 15:07:53;;;;;;;0.10;0.10;;;;;;;-145.06;36.58;95052.72;10426761;28;20021;-85
2023/04/06 15:12:54;;;;;;;0.10;0.10;;;;;;;-145.06;34.71;95032.25;10403903;28;20337;-83
2023/04/06 15:17:54;;;;;;;0.10;0.10;;;;;;;-145.06;35.56;95167.31;10409245;28;20373;-83
2023/04/06 15:22:54;;;;;;;0.10;0.10;;;;;;;-145.06;34.97;95056.81;10434186;28;20260;-83
2023/04/06 15:27:55;;;;;;;0.00;0.00;;;;;;;-145.06;35.82;95085.47;10435596;28;20040;-83
2023/04/06 15:33:00;;;;;;;0.00;0.00;;;;;;;-145.06;35.82;95042.50;10452110;28;20036;-84
2023/04/06 15:38:02;;;;;;;0.10;0.10;;;;;;;-145.06;34.42;95046.56;10426541;28;20033;-83
2023/04/06 15:43:02;;;;;;;0.10;0.10;;;;;;;-145.06;33.50;95034.31;10455002;28;20100;-84
2023/04/06 15:48:02;;;;;;;0.10;0.10;;;;;;;-145.06;34.30;95126.38;10456143;28;20109;-83
2023/04/06 15:53:03;;;;;;;0.10;0.10;;;;;;;-145.06;35.37;95071.13;10454669;28;20103;-83
2023/04/06 15:58:03;;;;;;;0.10;0.10;;;;;;;-145.06;34.50;95142.75;10434673;28;20013;-83
2023/04/06 16:03:03;;;;;;;0.10;0.10;;;;;;;-145.06;34.45;95073.19;10438574;28;20275;-83
2023/04/06 16:08:04;;;;;;;0.10;0.10;;;;;;;-145.06;37.71;95408.75;10437846;28;20017;-84
2023/04/06 16:13:06;;;;;;;0.10;0.10;;;;;;;-145.06;37.08;95347.38;10459745;28;20016;-84
2023/04/06 16:18:06;;;;;;;0.10;0.10;;;;;;;-145.06;37.45;95535.63;10431773;28;20056;-85
2023/04/06 16:23:06;;;;;;;0.10;0.10;;;;;;;-145.06;38.02;95869.19;10461793;28;20024;-84
2023/04/06 16:28:07;;;;;;;0.05;0.05;;;;;;;-145.06;35.89;95922.41;10464619;28;20031;-84
2023/04/06 16:33:08;;;;;;;0.00;0.00;;;;;;;-145.06;36.92;95699.34;10465099;28;20491;-85
2023/04/06 16:38:08;;;;;;;0.10;0.10;;;;;;;-145.06;35.94;95537.66;10425693;28;20499;-83
2023/04/06 16:43:08;;;;;;;0.10;0.10;;;;;;;-145.06;35.76;95574.50;10450378;28;20368;-83
2023/04/06 16:48:09;;;;;;;0.10;0.10;;;;;;;-145.06;35.89;96030.88;10433073;28;20047;-83
2023/04/06 16:53:09;;;;;;;0.10;0.10;;;;;;;-145.06;35.85;96059.53;10433922;28;20046;-83
2023/04/06 16:58:10;;;;;;;0.08;0.08;;;;;;;-145.06;35.97;96143.44;10438776;28;20045;-83
2023/04/06 17:03:10;;;;;;;0.10;0.10;;;;;;;-145.06;36.83;96206.88;10453089;28;20112;-83
2023/04/06 17:08:10;;;;;;;0.00;0.00;;;;;;;-145.06;36.57;96196.66;10439644;28;20025;-83
2023/04/06 17:13:11;;;;;;;0.10;0.10;;;;;;;-145.06;36.45;96237.59;10469745;28;20357;-83
2023/04/06 17:18:11;;;;;;;0.10;0.10;;;;;;;-145.06;37.67;96315.34;10448356;28;20017;-83
2023/04/06 17:23:12;;;;;;;0.10;0.10;;;;;;;-145.06;38.63;96352.19;10464176;28;20021;-84
2023/04/06 17:28:12;;;;;;;0.00;0.00;;;;;;;-145.06;38.83;96366.53;10447899;28;20028;-83
2023/04/06 17:33:12;;;;;;;0.10;0.10;;;;;;;-145.06;39.11;96503.66;10456029;28;20349;-84
2023/04/06 17:38:13;;;;;;;0.10;0.10;;;;;;;-145.06;39.61;96448.41;10458284;28;20025;-84
2023/04/06 17:43:13;;;;;;;0.10;0.10;;;;;;;-145.06;40.21;96446.34;10466109;28;20132;-83
2023/04/06 17:48:14;;;;;;;0.10;0.10;;;;;;;-145.06;40.21;96518.00;10455695;28;20033;-83
2023/04/06 17:53:17;;;;;;;0.10;0.10;;;;;;;-145.06;40.98;96573.25;10469048;28;20043;-83
2023/04/06 17:58:17;;;;;;;0.00;0.00;;;;;;;-145.06;44.80;96655.13;10464930;28;20292;-84
2023/04/06 18:03:18;;;;;;;0.00;0.00;;;;;;;-145.06;45.57;96691.97;10448283;28;20387;-80
2023/04/06 18:08:18;;;;;;;0.08;0.08;;;;;;;-145.06;46.92;96747.25;10440261;28;20348;-80
2023/04/06 18:13:18;;;;;;;0.00;0.00;;;;;;;-145.06;48.19;96755.44;10436185;28;20024;-80
2023/04/06 18:18:19;;;;;;;0.00;0.00;;;;;;;-145.06;48.83;96812.75;10444280;28;20484;-79
2023/04/06 18:23:19;;;;;;;0.10;0.10;;;;;;;-145.06;50.53;96831.16;10444424;28;20112;-79
2023/04/06 18:28:20;;;;;;;0.07;0.07;;;;;;;-145.06;50.97;96818.88;10450804;28;20025;-80
2023/04/06 18:33:20;;;;;;;0.10;0.10;;;;;;;-145.06;50.98;96872.09;10448599;28;20267;-80
2023/04/06 18:38:21;;;;;;;0.10;0.10;;;;;;;-145.06;51.94;96870.06;10410859;28;20519;-80
2023/04/06 18:43:21;;;;;;;0.00;0.00;;;;;;;-145.06;52.28;96892.56;10421534;28;20087;-80
2023/04/06 18:48:21;;;;;;;0.10;0.10;;;;;;;-145.06;52.05;96884.38;10457606;28;20084;-80
2023/04/06 18:53:22;;;;;;;0.00;0.00;;;;;;;-145.06;52.43;96882.34;10420696;28;20548;-81
2023/04/06 18:58:24;;;;;;;0.00;0.00;;;;;;;-145.06;52.80;96911.00;10460572;28;20087;-80
2023/04/06 19:03:24;;;;;;;0.00;0.00;;;;;;;-145.06;52.60;96913.03;10443642;28;20019;-79
2023/04/06 19:08:25;;;;;;;0.00;0.00;;;;;;;-145.06;53.00;96915.09;10461033;28;20017;-80
2023/04/06 19:13:27;;;;;;;0.10;0.10;;;;;;;-145.06;53.38;96911.00;10429324;28;20033;-81
2023/04/06 19:18:27;;;;;;;0.00;0.00;;;;;;;-145.06;53.51;96945.81;10419290;28;20536;-80
2023/04/06 19:23:28;;;;;;;0.10;0.10;;;;;;;-145.06;53.08;96888.47;10423345;28;20103;-80
2023/04/06 19:28:28;;;;;;;0.00;0.00;;;;;;;-145.06;53.18;96939.66;10459955;28;20287;-79
2023/04/06 19:33:28;;;;;;;0.00;0.00;;;;;;;-145.06;52.56;96886.44;10450908;28;20048;-80
2023/04/06 19:38:29;;;;;;;0.00;0.00;;;;;;;-145.06;53.15;96882.34;10456894;28;20025;-79
2023/04/06 19:43:29;;;;;;;0.00;0.00;;;;;;;-145.06;53.68;96876.19;10452662;28;20576;-80
2023/04/06 19:48:32;;;;;;;0.00;0.00;;;;;;;-145.06;54.58;96966.28;10426498;28;20778;-80
2023/04/06 19:53:32;;;;;;;0.00;0.00;;;;;;;-145.06;55.16;97054.28;10443507;28;20044;-80
2023/04/06 19:58:33;;;;;;;0.00;0.00;;;;;;;-145.06;54.96;96941.69;10459352;28;20361;-80
2023/04/06 20:03:35;;;;;;;0.10;0.10;;;;;;;-145.06;54.52;96931.47;10462403;28;20029;-80
2023/04/06 20:08:35;;;;;;;0.00;0.00;;;;;;;-145.06;54.65;96972.41;10449471;28;20033;-80
2023/04/06 20:13:36;;;;;;;0.00;0.00;;;;;;;-145.06;54.43;96935.56;10448982;28;20562;-80
2023/04/06 20:18:36;;;;;;;0.00;0.00;;;;;;;-145.06;54.64;96941.69;10461122;28;20354;-81
2023/04/06 20:23:37;;;;;;;0.00;0.00;;;;;;;-145.06;55.03;96925.31;10457816;28;20487;-80
2023/04/06 20:28:38;;;;;;;0.00;0.00;;;;;;;-145.06;55.16;96958.06;10465509;28;20013;-81
2023/04/06 20:33:39;;;;;;;0.00;0.00;;;;;;;-145.06;54.51;96976.50;10422009;28;20032;-80
2023/04/06 20:38:39;;;;;;;0.00;0.00;;;;;;;-145.06;54.68;96935.56;10478949;28;20543;-80
2023/04/06 20:43:40;;;;;;;0.00;0.00;;;;;;;-145.06;53.99;96931.47;10459748;28;20078;-79
2023/04/06 20:48:40;;;;;;;0.00;0.00;;;;;;;-145.06;54.45;96939.66;10445146;28;20060;-80
2023/04/06 20:53:40;;;;;;;0.00;0.00;;;;;;;-145.06;54.68;96974.47;10439184;28;20025;-78
2023/04/06 20:58:41;;;;;;;0.00;0.00;;;;;;;-145.06;54.38;96927.38;10457461;28;20021;-78
2023/04/06 21:03:42;;;;;;;0.00;0.00;;;;;;;-145.06;54.09;96931.47;10456103;28;20032;-80
2023/04/06 21:08:42;;;;;;;0.00;0.00;;;;;;;-145.06;54.37;96921.22;10452552;28;20326;-80
2023/04/06 21:13:42;;;;;;;0.00;0.00;;;;;;;-145.06;54.46;96956.03;10453816;28;20017;-80
2023/04/06 21:18:43;;;;;;;0.00;0.00;;;;;;;-145.06;54.01;96964.22;10438162;28;20033;-80
2023/04/06 21:23:43;;;;;;;0.00;0.00;;;;;;;-145.06;54.91;96988.78;10435619;28;20021;-80
2023/04/06 21:28:44;;;;;;;0.00;0.00;;;;;;;-145.06;54.45;96941.69;10435940;28;20032;-80
2023/04/06 21:33:44;;;;;;;0.00;0.00;;;;;;;-145.06;54.60;96935.56;10436492;28;20025;-80
2023/04/06 21:38:45;;;;;;;0.00;0.00;;;;;;;-145.06;54.74;96951.94;10444801;28;20060;-79
2023/04/06 21:43:45;;;;;;;0.00;0.00;;;;;;;-145.06;54.56;96925.31;10453537;28;20017;-80
2023/04/06 21:48:45;;;;;;;0.00;0.00;;;;;;;-145.06;55.01;97019.50;10440634;28;20025;-81
2023/04/06 21:53:46;;;;;;;0.00;0.00;;;;;;;-145.06;55.06;96947.84;10443908;28;20029;-80
2023/04/06 21:58:46;;;;;;;0.00;0.00;;;;;;;-145.06;55.18;96958.06;10419372;28;20017;-80
2023/04/06 22:03:47;;;;;;;0.00;0.00;;;;;;;-145.06;55.41;96947.84;10448436;28;20522;-80
2023/04/06 22:08:48;;;;;;;0.00;0.00;;;;;;;-145.06;55.31;96947.84;10443670;28;20055;-81
2023/04/06 22:13:48;;;;;;;0.00;0.00;;;;;;;-145.06;55.21;96960.13;10423219;28;20461;-80
2023/04/06 22:18:48;;;;;;;0.00;0.00;;;;;;;-145.06;54.66;96939.66;10438124;28;20013;-80
2023/04/06 22:23:49;;;;;;;0.00;0.00;;;;;;;-145.06;54.64;96898.72;10450125;28;20180;-80
2023/04/06 22:28:49;;;;;;;0.00;0.00;;;;;;;-145.06;54.97;96962.19;10451227;28;20016;-80
2023/04/06 22:33:50;;;;;;;0.00;0.00;;;;;;;-145.06;55.02;96970.38;10450284;28;20031;-80
2023/04/06 22:38:50;;;;;;;0.00;0.00;;;;;;;-145.06;54.41;96945.81;10459496;28;20033;-80
2023/04/06 22:43:50;;;;;;;0.00;0.00;;;;;;;-145.06;55.42;96941.69;10437767;28;20420;-79